createdAt,value
2018-04-24T04:09:14.776Z,1008.94
2018-04-24T04:09:40.259Z,1008.94
2018-04-24T04:10:05.734Z,1008.94
2018-04-24T04:10:31.165Z,1008.96
2018-04-24T04:10:56.677Z,1009.01
2018-04-24T04:11:22.199Z,1008.96
2018-04-24T04:11:47.593Z,1008.98
2018-04-24T04:12:13.060Z,1008.95
2018-04-24T04:12:38.559Z,1009.01
2018-04-24T04:13:03.985Z,1008.96
2018-04-24T04:13:29.459Z,1009.02
2018-04-24T04:13:54.941Z,1008.98
2018-04-24T04:14:20.403Z,1009.02
2018-04-24T04:14:45.853Z,1008.98
2018-04-24T04:15:11.351Z,1008.96
2018-04-24T04:15:36.780Z,1008.96
2018-04-24T04:16:02.322Z,1008.93
2018-04-24T04:16:27.854Z,1008.9
2018-04-24T04:16:53.345Z,1008.88
2018-04-24T04:17:18.861Z,1008.87
2018-04-24T04:17:44.277Z,1008.88
2018-04-24T04:18:09.774Z,1008.87
2018-04-24T04:18:35.212Z,1008.87
2018-04-24T04:19:00.696Z,1008.86
2018-04-24T04:19:26.200Z,1008.9
2018-04-24T04:19:51.668Z,1008.9
2018-04-24T04:20:17.096Z,1008.86
2018-04-24T04:20:42.565Z,1008.88
2018-04-24T04:21:08.056Z,1008.87
2018-04-24T04:21:33.505Z,1008.87
2018-04-24T04:21:58.965Z,1008.88
2018-04-24T04:22:24.434Z,1008.9
2018-04-24T04:22:49.910Z,1008.9
2018-04-24T04:23:15.339Z,1008.95
2018-04-24T04:23:40.823Z,1008.95
2018-04-24T04:24:06.291Z,1008.97
2018-04-24T04:24:31.802Z,1008.94
2018-04-24T04:24:57.253Z,1008.92
2018-04-24T04:25:22.781Z,1008.91
2018-04-24T04:25:48.232Z,1008.92
2018-04-24T04:26:13.723Z,1008.94
2018-04-24T04:26:39.155Z,1008.98
2018-04-24T04:27:04.666Z,1008.93
2018-04-24T04:27:30.150Z,1008.97
2018-04-24T04:27:55.603Z,1008.99
2018-04-24T04:28:21.042Z,1008.99
2018-04-24T04:28:46.492Z,1008.95
2018-04-24T04:29:11.996Z,1008.94
2018-04-24T04:29:37.432Z,1008.91
2018-04-24T04:30:02.892Z,1008.92
2018-04-24T04:30:28.387Z,1008.93
2018-04-24T04:30:53.826Z,1008.92
2018-04-24T04:31:19.409Z,1008.9
2018-04-24T04:31:44.922Z,1008.92
2018-04-24T04:32:10.321Z,1008.93
2018-04-24T04:32:35.860Z,1008.91
2018-04-24T04:33:01.535Z,1008.92
2018-04-24T04:33:26.968Z,1008.89
2018-04-24T04:33:52.459Z,1008.92
2018-04-24T04:34:18.013Z,1008.9
2018-04-24T04:34:43.559Z,1008.89
2018-04-24T04:35:09.179Z,1008.9
2018-04-24T04:35:34.877Z,1008.87
2018-04-24T04:36:00.649Z,1008.88
2018-04-24T04:36:26.116Z,1008.87
2018-04-24T04:36:51.760Z,1008.83
2018-04-24T04:37:17.701Z,1008.86
2018-04-24T04:37:43.364Z,1008.82
2018-04-24T04:38:08.908Z,1008.83
2018-04-24T04:38:34.507Z,1008.85
2018-04-24T04:39:00.117Z,1008.84
2018-04-24T04:39:26.076Z,1008.85
2018-04-24T04:39:51.665Z,1008.83
2018-04-24T04:40:17.499Z,1008.8
2018-04-24T04:40:43.056Z,1008.83
2018-04-24T04:41:08.646Z,1008.85
2018-04-24T04:41:34.457Z,1008.81
2018-04-24T04:42:00.015Z,1008.9
2018-04-24T04:42:25.496Z,1008.82
2018-04-24T04:42:51.181Z,1008.82
2018-04-24T04:43:17.306Z,1008.89
2018-04-24T04:43:42.964Z,1008.89
2018-04-24T04:44:08.613Z,1008.86
2018-04-24T04:44:34.524Z,1008.92
2018-04-24T04:45:00.662Z,1008.84
2018-04-24T04:45:26.560Z,1008.9
2018-04-24T04:45:52.264Z,1008.84
2018-04-24T04:46:19.019Z,1008.89
2018-04-24T04:46:44.704Z,1008.92
2018-04-24T04:47:11.095Z,1008.94
2018-04-24T04:47:37.019Z,1008.9
2018-04-24T04:48:02.717Z,1008.93
2018-04-24T04:48:28.917Z,1008.94
2018-04-24T04:48:54.714Z,1008.99
2018-04-24T04:49:20.790Z,1008.97
2018-04-24T04:49:47.551Z,1008.93
2018-04-24T04:50:14.102Z,1008.97
2018-04-24T04:50:39.517Z,1008.98
2018-04-24T04:51:05.791Z,1008.96
2018-04-24T04:51:32.641Z,1008.98
2018-04-24T04:51:58.727Z,1009
2018-04-24T04:52:24.589Z,1009
2018-04-24T04:52:50.548Z,1009.04
2018-04-24T04:53:16.510Z,1009.02
2018-04-24T04:53:42.381Z,1009.04
2018-04-24T04:54:07.784Z,1009.05
2018-04-24T04:54:33.245Z,1009
2018-04-24T04:54:58.756Z,1009.07
2018-04-24T04:55:24.430Z,1009.01
2018-04-24T04:55:49.923Z,1008.97
2018-04-24T04:56:15.447Z,1008.99
2018-04-24T04:56:41.047Z,1009.01
2018-04-24T04:57:06.614Z,1008.96
2018-04-24T04:57:32.158Z,1009.03
2018-04-24T04:57:57.637Z,1009.02
2018-04-24T04:58:23.151Z,1009.01
2018-04-24T04:58:48.664Z,1009.05
2018-04-24T04:59:14.124Z,1009.05
2018-04-24T04:59:39.670Z,1009.06
2018-04-24T05:00:05.353Z,1009.11
2018-04-24T05:00:30.902Z,1009.08
2018-04-24T05:00:56.522Z,1009.1
2018-04-24T05:01:22.139Z,1009.07
2018-04-24T05:01:47.524Z,1009.1
2018-04-24T05:02:13.154Z,1009.11
2018-04-24T05:02:38.677Z,1009.12
2018-04-24T05:03:04.192Z,1009.15
2018-04-24T05:03:29.797Z,1009.15
2018-04-24T05:03:55.405Z,1009.13
2018-04-24T05:04:20.915Z,1009.16
2018-04-24T05:04:46.570Z,1009.15
2018-04-24T05:05:12.216Z,1009.15
2018-04-24T05:05:37.692Z,1009.13
2018-04-24T05:06:03.335Z,1009.19
2018-04-24T05:06:29.012Z,1009.2
2018-04-24T05:06:55.016Z,1009.23
2018-04-24T05:07:20.753Z,1009.25
2018-04-24T05:07:46.408Z,1009.25
2018-04-24T05:08:12.290Z,1009.23
2018-04-24T05:08:37.907Z,1009.23
2018-04-24T05:09:03.367Z,1009.24
2018-04-24T05:09:28.972Z,1009.25
2018-04-24T05:09:54.761Z,1009.23
2018-04-24T05:10:20.699Z,1009.29
2018-04-24T05:10:46.166Z,1009.25
2018-04-24T05:11:11.670Z,1009.24
2018-04-24T05:11:37.218Z,1009.25
2018-04-24T05:12:02.712Z,1009.26
2018-04-24T05:12:28.194Z,1009.28
2018-04-24T05:12:53.669Z,1009.32
2018-04-24T05:13:19.148Z,1009.29
2018-04-24T05:13:44.593Z,1009.29
2018-04-24T05:14:10.079Z,1009.32
2018-04-24T05:14:35.568Z,1009.3
2018-04-24T05:15:01.101Z,1009.29
2018-04-24T05:15:26.576Z,1009.31
2018-04-24T05:15:52.053Z,1009.29
2018-04-24T05:16:17.531Z,1009.29
2018-04-24T05:16:43.034Z,1009.28
2018-04-24T05:17:08.545Z,1009.29
2018-04-24T05:17:34.036Z,1009.31
2018-04-24T05:17:59.569Z,1009.3
2018-04-24T05:18:25.045Z,1009.27
2018-04-24T05:18:50.510Z,1009.3
2018-04-24T05:19:16.021Z,1009.25
2018-04-24T05:19:41.508Z,1009.27
2018-04-24T05:20:06.999Z,1009.24
2018-04-24T05:20:32.464Z,1009.25
2018-04-24T05:20:57.954Z,1009.25
2018-04-24T05:21:23.443Z,1009.27
2018-04-24T05:21:48.954Z,1009.21
2018-04-24T05:22:14.435Z,1009.25
2018-04-24T05:22:39.951Z,1009.2
2018-04-24T05:23:05.413Z,1009.23
2018-04-24T05:23:30.893Z,1009.3
2018-04-24T05:23:56.373Z,1009.3
2018-04-24T05:24:21.821Z,1009.28
2018-04-24T05:24:47.340Z,1009.28
2018-04-24T05:25:12.868Z,1009.3
2018-04-24T05:25:38.258Z,1009.26
2018-04-24T05:26:03.704Z,1009.3
2018-04-24T05:26:29.166Z,1009.3
2018-04-24T05:26:54.646Z,1009.34
2018-04-24T05:27:20.086Z,1009.26
2018-04-24T05:27:45.553Z,1009.3
2018-04-24T05:28:11.063Z,1009.27
2018-04-24T05:28:36.510Z,1009.28
2018-04-24T05:29:01.989Z,1009.3
2018-04-24T05:29:27.481Z,1009.18
2018-04-24T05:29:52.954Z,1009.27
2018-04-24T05:30:18.418Z,1009.29
2018-04-24T05:30:43.899Z,1009.3
2018-04-24T05:31:52.557Z,1009.31
2018-04-24T05:32:18.043Z,1009.31
2018-04-24T05:32:43.555Z,1009.28
2018-04-24T05:33:09.014Z,1009.26
2018-04-24T05:33:34.479Z,1009.35
2018-04-24T05:33:59.939Z,1009.33
2018-04-24T05:34:25.467Z,1009.29
2018-04-24T05:34:50.883Z,1009.33
2018-04-24T05:35:16.360Z,1009.35
2018-04-24T05:35:41.932Z,1009.33
2018-04-24T05:36:07.378Z,1009.37
2018-04-24T05:36:32.899Z,1009.33
2018-04-24T05:36:58.360Z,1009.37
2018-04-24T05:37:23.830Z,1009.35
2018-04-24T05:38:37.604Z,1009.36
2018-04-24T05:39:03.100Z,1009.36
2018-04-24T05:39:28.590Z,1009.33
2018-04-24T05:39:54.062Z,1009.39
2018-04-24T05:40:19.526Z,1009.36
2018-04-24T05:40:45.022Z,1009.41
2018-04-24T05:41:10.517Z,1009.41
2018-04-24T05:41:36.004Z,1009.39
2018-04-24T05:42:01.457Z,1009.42
2018-04-24T05:42:26.932Z,1009.42
2018-04-24T05:42:52.397Z,1009.41
2018-04-24T05:43:17.873Z,1009.39
2018-04-24T05:43:43.333Z,1009.33
2018-04-24T05:44:08.860Z,1009.37
2018-04-24T05:44:34.334Z,1009.37
2018-04-24T05:44:59.796Z,1009.36
2018-04-24T05:45:25.279Z,1009.3
2018-04-24T05:45:50.731Z,1009.33
2018-04-24T05:46:16.181Z,1009.35
2018-04-24T05:46:41.694Z,1009.42
2018-04-24T05:47:07.164Z,1009.43
2018-04-24T05:47:32.612Z,1009.4
2018-04-24T05:48:31.121Z,1009.37
2018-04-24T05:48:56.603Z,1009.36
2018-04-24T05:49:22.107Z,1009.4
2018-04-24T05:49:47.570Z,1009.34
2018-04-24T05:50:13.045Z,1009.4
2018-04-24T05:50:38.525Z,1009.34
2018-04-24T05:51:03.998Z,1009.41
2018-04-24T05:51:29.478Z,1009.38
2018-04-24T05:51:54.933Z,1009.39
2018-04-24T05:52:20.382Z,1009.37
2018-04-24T05:52:45.853Z,1009.42
2018-04-24T05:53:11.288Z,1009.41
2018-04-24T05:53:36.732Z,1009.41
2018-04-24T05:54:02.220Z,1009.39
2018-04-24T05:54:27.686Z,1009.36
2018-04-24T05:54:53.137Z,1009.3
2018-04-24T05:55:18.598Z,1009.32
2018-04-24T05:55:44.085Z,1009.34
2018-04-24T05:56:09.576Z,1009.37
2018-04-24T05:56:34.995Z,1009.36
2018-04-24T05:57:00.450Z,1009.31
2018-04-24T05:57:25.909Z,1009.37
2018-04-24T05:57:51.389Z,1009.39
2018-04-24T05:58:16.846Z,1009.38
2018-04-24T05:58:42.334Z,1009.35
2018-04-24T05:59:07.816Z,1009.33
2018-04-24T05:59:33.312Z,1009.36
2018-04-24T05:59:58.828Z,1009.37
2018-04-24T06:00:24.269Z,1009.37
2018-04-24T06:00:49.745Z,1009.36
2018-04-24T06:01:15.179Z,1009.38
2018-04-24T06:01:40.646Z,1009.35
2018-04-24T06:02:06.119Z,1009.37
2018-04-24T06:02:31.584Z,1009.34
2018-04-24T06:02:57.040Z,1009.3
2018-04-24T06:03:22.518Z,1009.36
2018-04-24T06:03:47.973Z,1009.41
2018-04-24T06:04:13.433Z,1009.34
2018-04-24T06:04:38.914Z,1009.34
2018-04-24T06:05:04.378Z,1009.39
2018-04-24T06:05:29.858Z,1009.38
2018-04-24T06:05:55.342Z,1009.33
2018-04-24T06:06:20.836Z,1009.36
2018-04-24T06:06:46.257Z,1009.34
2018-04-24T06:07:11.773Z,1009.36
2018-04-24T06:07:37.265Z,1009.32
2018-04-24T06:08:02.715Z,1009.3
2018-04-24T06:08:28.319Z,1009.32
2018-04-24T06:08:53.706Z,1009.38
2018-04-24T06:09:19.186Z,1009.34
2018-04-24T06:09:44.665Z,1009.34
2018-04-24T06:10:10.148Z,1009.32
2018-04-24T06:10:35.605Z,1009.31
2018-04-24T06:11:01.078Z,1009.32
2018-04-24T06:11:26.545Z,1009.24
2018-04-24T06:11:52.015Z,1009.28
2018-04-24T06:12:17.480Z,1009.22
2018-04-24T06:12:42.977Z,1009.22
2018-04-24T06:13:08.429Z,1009.26
2018-04-24T06:13:33.912Z,1009.21
2018-04-24T06:13:59.386Z,1009.26
2018-04-24T06:14:24.853Z,1009.25
2018-04-24T06:14:50.309Z,1009.24
2018-04-24T06:15:15.789Z,1009.26
2018-04-24T06:15:41.285Z,1009.29
2018-04-24T06:16:06.750Z,1009.23
2018-04-24T06:16:32.261Z,1009.22
2018-04-24T06:16:57.750Z,1009.21
2018-04-24T06:17:23.212Z,1009.21
2018-04-24T06:17:48.699Z,1009.19
2018-04-24T06:18:14.174Z,1009.21
2018-04-24T06:18:39.600Z,1009.23
2018-04-24T06:19:59.031Z,1009.16
2018-04-24T06:20:24.531Z,1009.16
2018-04-24T06:20:50.015Z,1009.17
2018-04-24T06:21:15.499Z,1009.15
2018-04-24T06:21:40.972Z,1009.12
2018-04-24T06:22:06.459Z,1009.13
2018-04-24T06:22:31.973Z,1009.08
2018-04-24T06:22:57.406Z,1009.11
2018-04-24T06:23:22.898Z,1009.01
2018-04-24T06:23:48.340Z,1009.05
2018-04-24T06:24:13.845Z,1009.08
2018-04-24T06:24:39.301Z,1009.06
2018-04-24T06:25:04.780Z,1008.97
2018-04-24T06:25:30.286Z,1009.01
2018-04-24T06:25:55.748Z,1009.05
2018-04-24T06:26:21.288Z,1008.99
2018-04-24T06:26:46.753Z,1009.01
2018-04-24T06:27:12.192Z,1009.06
2018-04-24T06:27:37.668Z,1009.08
2018-04-24T06:28:03.154Z,1009.05
2018-04-24T06:28:28.684Z,1009.07
2018-04-24T06:28:54.097Z,1009.1
2018-04-24T06:29:19.555Z,1009.09
2018-04-24T06:29:45.126Z,1009.1
2018-04-24T06:30:10.524Z,1009.1
2018-04-24T06:30:36.019Z,1009.04
2018-04-24T06:31:01.483Z,1009.06
2018-04-24T06:31:27.088Z,1009.06
2018-04-24T06:31:52.539Z,1009.03
2018-04-24T06:32:18.013Z,1009.08
2018-04-24T06:32:43.486Z,1009.05
2018-04-24T06:33:09.050Z,1009.1
2018-04-24T06:33:34.656Z,1009.11
2018-04-24T06:34:00.147Z,1009.12
2018-04-24T06:34:25.634Z,1009.18
2018-04-24T06:34:51.102Z,1009.12
2018-04-24T06:35:16.571Z,1009.11
2018-04-24T06:35:42.025Z,1009.13
2018-04-24T06:36:07.497Z,1009.14
2018-04-24T06:36:32.977Z,1009.1
2018-04-24T06:36:58.489Z,1009.22
2018-04-24T06:37:24.011Z,1009.14
2018-04-24T06:37:49.504Z,1009.1
2018-04-24T06:38:14.936Z,1009.08
2018-04-24T06:38:40.538Z,1009.04
2018-04-24T06:39:06.167Z,1009.09
2018-04-24T06:39:31.786Z,1009.04
2018-04-24T06:39:57.424Z,1008.99
2018-04-24T06:40:23.010Z,1009
2018-04-24T06:40:48.471Z,1009.04
2018-04-24T06:41:13.959Z,1009.04
2018-04-24T06:41:39.432Z,1009.04
2018-04-24T06:42:04.918Z,1009.02
2018-04-24T06:42:30.475Z,1009.06
2018-04-24T06:42:55.976Z,1009.06
2018-04-24T06:43:21.419Z,1009.11
2018-04-24T06:43:46.901Z,1009.13
2018-04-24T06:44:12.398Z,1009.12
2018-04-24T06:44:37.887Z,1009.17
2018-04-24T06:45:03.320Z,1009.13
2018-04-24T06:45:28.789Z,1009.12
2018-04-24T06:45:54.368Z,1009.2
2018-04-24T06:46:19.854Z,1009.23
2018-04-24T06:46:45.308Z,1009.15
2018-04-24T06:47:10.807Z,1009.22
2018-04-24T06:47:36.262Z,1009.23
2018-04-24T06:48:01.732Z,1009.28
2018-04-24T06:48:27.200Z,1009.24
2018-04-24T06:48:52.696Z,1009.25
2018-04-24T06:49:18.134Z,1009.29
2018-04-24T06:49:43.596Z,1009.22
2018-04-24T06:50:09.069Z,1009.29
2018-04-24T06:50:34.560Z,1009.28
2018-04-24T06:51:00.053Z,1009.28
2018-04-24T06:51:25.506Z,1009.33
2018-04-24T06:51:50.952Z,1009.28
2018-04-24T06:52:16.430Z,1009.26
2018-04-24T06:52:41.909Z,1009.33
2018-04-24T06:53:07.374Z,1009.3
2018-04-24T06:53:32.861Z,1009.36
2018-04-24T06:53:58.315Z,1009.37
2018-04-24T06:54:23.830Z,1009.32
2018-04-24T06:54:49.292Z,1009.38
2018-04-24T06:55:14.749Z,1009.38
2018-04-24T06:55:40.213Z,1009.4
2018-04-24T06:56:05.704Z,1009.42
2018-04-24T06:56:31.149Z,1009.37
2018-04-24T06:56:56.592Z,1009.36
2018-04-24T06:57:22.033Z,1009.37
2018-04-24T06:57:47.489Z,1009.39
2018-04-24T06:58:12.993Z,1009.38
2018-04-24T06:58:38.479Z,1009.36
2018-04-24T06:59:03.969Z,1009.35
2018-04-24T06:59:29.432Z,1009.33
2018-04-24T06:59:54.911Z,1009.33
2018-04-24T07:00:20.381Z,1009.33
2018-04-24T07:00:45.866Z,1009.36
2018-04-24T07:01:11.342Z,1009.35
2018-04-24T07:01:36.808Z,1009.41
2018-04-24T07:02:02.285Z,1009.39
2018-04-24T07:02:27.757Z,1009.42
2018-04-24T07:02:53.297Z,1009.36
2018-04-24T07:03:18.828Z,1009.42
2018-04-24T07:03:44.309Z,1009.32
2018-04-24T07:04:09.797Z,1009.39
2018-04-24T07:04:35.271Z,1009.39
2018-04-24T07:05:00.746Z,1009.42
2018-04-24T07:05:26.212Z,1009.42
2018-04-24T07:05:51.677Z,1009.44
2018-04-24T07:07:05.460Z,1009.48
2018-04-24T07:07:30.933Z,1009.5
2018-04-24T07:07:56.407Z,1009.41
2018-04-24T07:08:22.039Z,1009.49
2018-04-24T07:08:47.543Z,1009.45
2018-04-24T07:09:12.993Z,1009.43
2018-04-24T07:09:38.476Z,1009.46
2018-04-24T07:10:03.974Z,1009.43
2018-04-24T07:10:29.408Z,1009.43
2018-04-24T07:10:54.880Z,1009.43
2018-04-24T07:11:20.340Z,1009.49
2018-04-24T07:11:45.796Z,1009.5
2018-04-24T07:12:11.301Z,1009.5
2018-04-24T07:12:36.757Z,1009.56
2018-04-24T07:13:02.216Z,1009.45
2018-04-24T07:13:27.740Z,1009.46
2018-04-24T07:13:53.174Z,1009.48
2018-04-24T07:14:18.686Z,1009.47
2018-04-24T07:14:44.175Z,1009.49
2018-04-24T07:15:09.730Z,1009.48
2018-04-24T07:15:35.241Z,1009.44
2018-04-24T07:16:00.774Z,1009.43
2018-04-24T07:16:26.292Z,1009.42
2018-04-24T07:16:51.868Z,1009.43
2018-04-24T07:17:17.247Z,1009.4
2018-04-24T07:17:42.730Z,1009.38
2018-04-24T07:18:08.227Z,1009.4
2018-04-24T07:18:33.706Z,1009.36
2018-04-24T07:18:59.273Z,1009.31
2018-04-24T07:19:24.840Z,1009.31
2018-04-24T07:19:50.336Z,1009.35
2018-04-24T07:20:16.115Z,1009.33
2018-04-24T07:20:41.880Z,1009.34
2018-04-24T07:21:07.417Z,1009.34
2018-04-24T07:21:32.923Z,1009.29
2018-04-24T07:21:58.446Z,1009.31
2018-04-24T07:22:23.934Z,1009.34
2018-04-24T07:22:49.451Z,1009.29
2018-04-24T07:23:15.148Z,1009.34
2018-04-24T07:23:40.637Z,1009.36
2018-04-24T07:24:06.150Z,1009.38
2018-04-24T07:24:31.567Z,1009.42
2018-04-24T07:24:57.116Z,1009.44
2018-04-24T07:25:22.566Z,1009.42
2018-04-24T07:25:48.024Z,1009.42
2018-04-24T07:26:13.523Z,1009.45
2018-04-24T07:26:39.001Z,1009.46
2018-04-24T07:27:04.559Z,1009.5
2018-04-24T07:27:29.940Z,1009.49
2018-04-24T07:27:55.424Z,1009.49
2018-04-24T07:28:20.903Z,1009.53
2018-04-24T07:28:46.398Z,1009.49
2018-04-24T07:29:11.897Z,1009.52
2018-04-24T07:29:37.612Z,1009.5
2018-04-24T07:30:03.231Z,1009.55
2018-04-24T07:30:28.807Z,1009.57
2018-04-24T07:30:54.320Z,1009.55
2018-04-24T07:31:19.908Z,1009.67
2018-04-24T07:31:45.482Z,1009.57
2018-04-24T07:32:11.074Z,1009.54
2018-04-24T07:32:36.635Z,1009.56
2018-04-24T07:33:02.272Z,1009.56
2018-04-24T07:33:27.990Z,1009.56
2018-04-24T07:33:53.492Z,1009.58
2018-04-24T07:34:19.083Z,1009.6
2018-04-24T07:34:44.581Z,1009.59
2018-04-24T07:35:10.100Z,1009.56
2018-04-24T07:35:35.799Z,1009.6
2018-04-24T07:36:01.397Z,1009.63
2018-04-24T07:36:27.062Z,1009.66
2018-04-24T07:36:52.656Z,1009.64
2018-04-24T07:37:18.257Z,1009.66
2018-04-24T07:37:43.859Z,1009.67
2018-04-24T07:38:09.524Z,1009.64
2018-04-24T07:38:35.309Z,1009.64
2018-04-24T07:39:00.823Z,1009.61
2018-04-24T07:39:26.546Z,1009.62
2018-04-24T07:39:52.076Z,1009.63
2018-04-24T07:40:17.679Z,1009.64
2018-04-24T07:40:43.319Z,1009.6
2018-04-24T07:41:08.757Z,1009.64
2018-04-24T07:41:34.345Z,1009.63
2018-04-24T07:42:00.001Z,1009.59
2018-04-24T07:42:25.566Z,1009.59
2018-04-24T07:42:51.113Z,1009.57
2018-04-24T07:43:16.684Z,1009.57
2018-04-24T07:43:42.282Z,1009.56
2018-04-24T07:44:07.803Z,1009.58
2018-04-24T07:44:33.415Z,1009.56
2018-04-24T07:44:59.038Z,1009.56
2018-04-24T07:45:24.551Z,1009.57
2018-04-24T07:45:50.105Z,1009.56
2018-04-24T07:46:15.622Z,1009.6
2018-04-24T07:46:41.315Z,1009.64
2018-04-24T07:47:06.822Z,1009.62
2018-04-24T07:47:32.495Z,1009.65
2018-04-24T07:47:58.140Z,1009.72
2018-04-24T07:48:23.728Z,1009.7
2018-04-24T07:48:49.315Z,1009.72
2018-04-24T07:49:14.891Z,1009.67
2018-04-24T07:49:40.375Z,1009.72
2018-04-24T07:50:06.238Z,1009.7
2018-04-24T07:50:31.802Z,1009.71
2018-04-24T07:50:57.377Z,1009.68
2018-04-24T07:51:22.996Z,1009.66
2018-04-24T07:51:48.552Z,1009.68
2018-04-24T07:52:14.084Z,1009.66
2018-04-24T07:52:39.637Z,1009.69
2018-04-24T07:53:05.179Z,1009.66
2018-04-24T07:53:30.745Z,1009.69
2018-04-24T07:53:56.362Z,1009.78
2018-04-24T07:54:21.912Z,1009.74
2018-04-24T07:54:47.512Z,1009.71
2018-04-24T07:55:13.035Z,1009.71
2018-04-24T07:55:38.667Z,1009.7
2018-04-24T07:56:04.212Z,1009.71
2018-04-24T07:56:29.780Z,1009.67
2018-04-24T07:56:55.295Z,1009.69
2018-04-24T07:57:20.841Z,1009.73
2018-04-24T07:57:46.444Z,1009.72
2018-04-24T07:58:12.200Z,1009.73
2018-04-24T07:58:37.793Z,1009.73
2018-04-24T07:59:03.326Z,1009.66
2018-04-24T07:59:28.861Z,1009.62
2018-04-24T07:59:54.370Z,1009.6
2018-04-24T08:00:19.988Z,1009.69
2018-04-24T08:00:45.547Z,1009.72
2018-04-24T08:01:11.068Z,1009.75
2018-04-24T08:01:36.644Z,1009.79
2018-04-24T08:02:02.178Z,1009.74
2018-04-24T08:02:27.790Z,1009.76
2018-04-24T08:02:53.346Z,1009.76
2018-04-24T08:03:18.883Z,1009.83
2018-04-24T08:03:44.493Z,1009.82
2018-04-24T08:04:09.977Z,1009.85
2018-04-24T08:04:35.572Z,1009.82
2018-04-24T08:05:01.132Z,1009.86
2018-04-24T08:05:26.666Z,1009.85
2018-04-24T08:05:52.210Z,1009.83
2018-04-24T08:06:17.985Z,1009.86
2018-04-24T08:06:43.559Z,1009.88
2018-04-24T08:07:09.132Z,1009.88
2018-04-24T08:07:34.693Z,1009.89
2018-04-24T08:08:00.271Z,1009.94
2018-04-24T08:08:25.991Z,1009.9
2018-04-24T08:08:51.557Z,1009.94
2018-04-24T08:09:17.134Z,1009.93
2018-04-24T08:09:42.734Z,1009.91
2018-04-24T08:10:08.307Z,1009.9
2018-04-24T08:10:33.888Z,1009.91
2018-04-24T08:10:59.515Z,1009.92
2018-04-24T08:11:25.095Z,1009.91
2018-04-24T08:11:50.676Z,1009.89
2018-04-24T08:12:16.257Z,1009.89
2018-04-24T08:12:41.881Z,1009.84
2018-04-24T08:13:07.502Z,1009.85
2018-04-24T08:13:33.090Z,1009.84
2018-04-24T08:13:58.664Z,1009.79
2018-04-24T08:14:24.152Z,1009.81
2018-04-24T08:14:49.799Z,1009.78
2018-04-24T08:15:15.401Z,1009.82
2018-04-24T08:15:41.035Z,1009.84
2018-04-24T08:16:06.634Z,1009.86
2018-04-24T08:16:32.288Z,1009.8
2018-04-24T08:16:57.868Z,1009.85
2018-04-24T08:17:23.359Z,1009.83
2018-04-24T08:17:49.020Z,1009.75
2018-04-24T08:18:14.553Z,1009.79
2018-04-24T08:18:40.114Z,1009.78
2018-04-24T08:19:05.782Z,1009.8
2018-04-24T08:19:31.482Z,1009.81
2018-04-24T08:19:57.073Z,1009.86
2018-04-24T08:20:22.604Z,1009.85
2018-04-24T08:20:48.186Z,1009.87
2018-04-24T08:21:13.701Z,1009.89
2018-04-24T08:21:39.478Z,1009.93
2018-04-24T08:22:04.987Z,1009.89
2018-04-24T08:22:30.632Z,1009.91
2018-04-24T08:22:56.222Z,1009.89
2018-04-24T08:23:21.751Z,1009.92
2018-04-24T08:23:47.246Z,1009.93
2018-04-24T08:24:12.869Z,1009.87
2018-04-24T08:24:38.457Z,1009.97
2018-04-24T08:25:04.193Z,1009.91
2018-04-24T08:25:29.698Z,1009.91
2018-04-24T08:25:55.179Z,1009.95
2018-04-24T08:26:20.745Z,1009.97
2018-04-24T08:26:46.336Z,1009.98
2018-04-24T08:27:11.866Z,1009.95
2018-04-24T08:27:37.360Z,1009.93
2018-04-24T08:28:03.037Z,1009.91
2018-04-24T08:28:28.723Z,1009.93
2018-04-24T08:28:54.381Z,1009.87
2018-04-24T08:29:19.893Z,1009.9
2018-04-24T08:29:45.410Z,1009.92
2018-04-24T08:30:10.995Z,1009.9
2018-04-24T08:30:36.583Z,1009.92
2018-04-24T08:31:02.077Z,1009.95
2018-04-24T08:31:27.831Z,1009.96
2018-04-24T08:31:53.230Z,1009.93
2018-04-24T08:32:18.759Z,1009.97
2018-04-24T08:32:44.288Z,1009.94
2018-04-24T08:33:09.925Z,1009.97
2018-04-24T08:33:35.575Z,1009.95
2018-04-24T08:34:01.184Z,1009.97
2018-04-24T08:34:26.806Z,1009.99
2018-04-24T08:34:52.409Z,1009.98
2018-04-24T08:35:18.062Z,1009.98
2018-04-24T08:35:44.015Z,1010
2018-04-24T08:36:09.699Z,1009.97
2018-04-24T08:36:35.231Z,1010
2018-04-24T08:37:00.765Z,1009.96
2018-04-24T08:37:26.429Z,1009.97
2018-04-24T08:37:52.107Z,1009.99
2018-04-24T08:38:17.793Z,1009.96
2018-04-24T08:38:43.412Z,1009.97
2018-04-24T08:39:08.946Z,1009.94
2018-04-24T08:39:34.577Z,1009.91
2018-04-24T08:40:00.218Z,1009.96
2018-04-24T08:40:25.853Z,1009.95
2018-04-24T08:41:24.367Z,1009.97
2018-04-24T08:41:49.888Z,1009.94
2018-04-24T08:42:15.395Z,1009.95
2018-04-24T08:42:40.816Z,1009.94
2018-04-24T08:43:06.299Z,1009.98
2018-04-24T08:43:31.797Z,1009.95
2018-04-24T08:43:57.222Z,1009.94
2018-04-24T08:44:22.717Z,1009.96
2018-04-24T08:44:48.146Z,1009.94
2018-04-24T08:45:13.599Z,1009.98
2018-04-24T08:45:39.080Z,1010.04
2018-04-24T08:46:04.539Z,1010.01
2018-04-24T08:46:30.204Z,1010.05
2018-04-24T08:46:55.794Z,1010.03
2018-04-24T08:47:21.422Z,1010
2018-04-24T08:47:46.992Z,1009.97
2018-04-24T08:48:12.582Z,1010.03
2018-04-24T08:48:38.195Z,1010.02
2018-04-24T08:49:03.746Z,1010.05
2018-04-24T08:49:29.413Z,1010.01
2018-04-24T08:49:54.943Z,1010.01
2018-04-24T08:50:20.746Z,1010.04
2018-04-24T08:50:46.246Z,1010.04
2018-04-24T08:51:11.841Z,1010.04
2018-04-24T08:51:37.383Z,1010.06
2018-04-24T08:52:03.041Z,1010.01
2018-04-24T08:52:28.492Z,1010.04
2018-04-24T08:52:54.028Z,1010.06
2018-04-24T08:53:19.611Z,1010.04
2018-04-24T08:53:45.169Z,1010.11
2018-04-24T08:54:10.751Z,1010.09
2018-04-24T08:54:36.338Z,1010.06
2018-04-24T08:55:01.995Z,1010.07
2018-04-24T08:55:27.695Z,1010.11
2018-04-24T08:55:53.289Z,1010.07
2018-04-24T08:56:18.906Z,1010.09
2018-04-24T08:56:44.470Z,1010.08
2018-04-24T08:57:10.056Z,1010.1
2018-04-24T08:57:35.923Z,1010.08
2018-04-24T08:58:01.644Z,1010.04
2018-04-24T08:58:27.288Z,1010
2018-04-24T08:58:52.904Z,1010.06
2018-04-24T08:59:18.498Z,1010.01
2018-04-24T08:59:44.008Z,1010.04
2018-04-24T09:00:09.604Z,1010.01
2018-04-24T09:00:35.253Z,1010
2018-04-24T09:01:00.967Z,1010.02
2018-04-24T09:01:26.649Z,1010
2018-04-24T09:01:52.307Z,1010.01
2018-04-24T09:02:17.670Z,1009.98
2018-04-24T09:02:43.271Z,1009.98
2018-04-24T09:03:08.933Z,1009.95
2018-04-24T09:03:34.461Z,1009.94
2018-04-24T09:04:00.345Z,1009.97
2018-04-24T09:04:26.009Z,1009.98
2018-04-24T09:04:51.474Z,1009.97
2018-04-24T09:05:17.009Z,1009.93
2018-04-24T09:05:42.511Z,1009.96
2018-04-24T09:06:08.217Z,1009.94
2018-04-24T09:06:33.773Z,1009.93
2018-04-24T09:06:59.303Z,1009.97
2018-04-24T09:07:25.006Z,1010
2018-04-24T09:07:50.626Z,1009.99
2018-04-24T09:08:16.295Z,1009.98
2018-04-24T09:08:41.840Z,1009.95
2018-04-24T09:09:07.401Z,1009.95
2018-04-24T09:09:32.966Z,1009.93
2018-04-24T09:09:58.559Z,1009.95
2018-04-24T09:10:24.094Z,1009.98
2018-04-24T09:10:49.682Z,1009.88
2018-04-24T09:11:15.316Z,1009.92
2018-04-24T09:11:40.799Z,1009.92
2018-04-24T09:12:06.397Z,1009.91
2018-04-24T09:12:32.249Z,1009.89
2018-04-24T09:12:57.842Z,1009.83
2018-04-24T09:13:23.419Z,1009.86
2018-04-24T09:13:49.049Z,1009.83
2018-04-24T09:14:14.633Z,1009.84
2018-04-24T09:14:40.194Z,1009.86
2018-04-24T09:15:05.797Z,1009.89
2018-04-24T09:15:31.537Z,1009.84
2018-04-24T09:15:57.032Z,1009.89
2018-04-24T09:16:22.542Z,1009.89
2018-04-24T09:16:48.121Z,1009.88
2018-04-24T09:17:13.653Z,1009.9
2018-04-24T09:17:39.259Z,1009.89
2018-04-24T09:18:04.860Z,1009.94
2018-04-24T09:18:30.422Z,1009.83
2018-04-24T09:18:55.984Z,1009.84
2018-04-24T09:19:21.640Z,1009.87
2018-04-24T09:19:47.218Z,1009.92
2018-04-24T09:20:12.773Z,1009.92
2018-04-24T09:20:38.480Z,1009.84
2018-04-24T09:21:03.953Z,1009.93
2018-04-24T09:21:29.551Z,1009.94
2018-04-24T09:21:55.090Z,1009.99
2018-04-24T09:22:20.667Z,1010
2018-04-24T09:22:46.266Z,1010.01
2018-04-24T09:23:11.789Z,1009.99
2018-04-24T09:23:37.417Z,1010.06